Albany, New York
Traffic Map
Current Weather Conditions
Albany, New York
Overcast Light Rain
Overcast
18°
Feels Like: 18°
Wind Chill: 18° Ceiling: 9000
Heat Index: 18° Visibility: 10mi
Dew Point: 11° Wind: 6mph
Humidity: 61% Direction: 210° (SSW)
Pressure: 30.24in Gusts: 0mph
Raw Report DataKALB 251251Z 21005KT 10SM -RA BKN090 OVC110 18/11 A3024 RMK AO2 SLP241 PCPN VRY LGT P0000 T01830106
Traffic Incident Summary
Active as of:
Severity:
Category:
InformationThere was an issue retrieving the traffic information for this location. Please try a different location or try again shortly.
Advertisements
Track Severe Weather on mobile